Main page
Satellite images 15-day forecastsClimateMarine weather Cyclones Lightning AirportsFAQ Newsletter About
Weather : Europe Africa North America South America Asia Australia-Oceania Others
Languages Contact

San Fernando, Argentina

latitude: 34-27-11S, longitude: 058-35-23W, elevation: 3 m


METAR: SADF 210400Z 16005KT 9999 FEW020 12/08 Q1022
short-TAF: out of date (4473 hours)
long-TAF: SADF 202300Z 2100/2124 18010KT 9999 SCT020 TX18/2118Z TN09/2109Z BECMG 2102/2104 4000 BR SCT010 BECMG 2112/2115 09010KT CAVOK

Time: 01:03 (04:03 UTC)

Current weather observation

The report was made 3 minutes ago, at 04:00 UTC  
Wind 05 kt from the South/Southeast
Temperature 12°C
Humidity 76%
Pressure 1022 hPa
Visibility 10 km or more
Few clouds at a height of 2000 ft

Change units

Forecast

The report was made 4 hours and 1 minutes ago, at 00:02 UTC  
Forecast valid from 21 at 00 UTC to 21 at 24 UTC
Wind 10 kt from the South
Visibility 10 km or more
Scattered clouds at a height of 2000 ft
Becoming
from 21 at 02 UTC to 21 at 04 UTC
Visibility 4000 m
Scattered clouds at a height of 1000 ft
mist
Becoming
from 21 at 12 UTC to 21 at 15 UTC
Wind 10 kt from the East
Visibility 10 km or more
no clouds below 1500 m and no cumulonimbus
The information on this site is subject to a disclaimer
Weather : Europe Africa North America South America Asia Australia-Oceania Others
Satellite images 15-day forecastsClimateMarine weather Cyclones Lightning AirportsFAQ Languages Contact Newsletter About